Capraia, Italy

10:44 PM CEST on October 21, 2018 (GMT +0200)
Capraia Fiorentina, Firenze | | Change Station

Elev 98 ft 43.74 °N, 11.01 °E | Updated 48 seconds ago

Clear
Clear
54.9 °F
Feels Like 54.9 °F
N
2
Wind Variable Wind from East
Gusts 4.0 mph

Today
High -- | Low -- °F
--% Chance of Precip.
Yesterday
High -- | Low -- °F
Precip. -- in
Pressure 30.09 in
Visibility 6.2 miles
Clouds Few 8000 ft
Dew Point 41 °F
Humidity 60%
Rainfall 0.00 in
Snow Depth Not available.
7:37 AM 6:23 PM
Waxing Gibbous, 92% visible
METAR LIRP 212015Z 07015G29KT 040V110 9999 FEW080 17/05 Q1019 TEMPO 05025G38KT
Pressure 30.09 in
Visibility 6.2 miles
Clouds Few 8000 ft
Dew Point 41 °F
Humidity 60%
Rainfall 0.00 in
Snow Depth Not available.
7:37 AM 6:23 PM
Waxing Gibbous, 92% visible
METAR LIRP 212015Z 07015G29KT 040V110 9999 FEW080 17/05 Q1019 TEMPO 05025G38KT

Get Severe Weather Alerts

Thanks for signing up!

Be on the lookout for a verification email in your inbox.

You'll start receiving the daily forecast at 6 AM.

×

10-Day Weather Forecast

×

Almanac

Astronomy

Oct. 21, 2018 Rise Set
Actual Time
Civil Twilight
Nautical Twilight
Astronomical Twilight
Moon
Length of Visible Light
Length of Day
Tomorrow will be .
, % of the Moon is Illuminated

Today's Extremes

Country Highs Country Lows

Community

WunderPhotos

Category 6

Welcome to Category 6. This is the collective home for Weather Underground's featured writeups by Dr. Jeff Masters (right), Bob Henson (left), Chris Burt, and other regular contributors.

Nearby

Air Quality

  Air Quality AQ Index Pollutant
Not available.

Snow Depth

Station Depth Elevation

Earthquake Activity

City Distance Mag. Time & Date
Minimum magnitude displayed is 2.5.

Coastal Water Temperatures

Place Temperature

Stations

Nearby Weather Stations

Station Location Temp. Windchill Dew Point Humidity Wind Precip. Elev Updated Type